Time;durP1;ratioP1;P1;durP2;ratioP2;P2;SDS_P1;SDS_P2;PMS_P1;PMS_P2;Temp;Humidity;BMP_temperature;BMP_pressure;BME280_temperature;BME280_humidity;BME280_pressure;Samples;Min_cycle;Max_cycle;Signal;HPM_P1;HPM_P2
2023/08/21 00:00:57;;;;;;;10.40;4.30;;;;;;;20.73;78.92;99633.13;4886910;29;20048;-84
2023/08/21 00:03:41;;;;;;;9.90;4.15;;;;;;;20.67;79.52;99634.94;4883403;29;20048;-85
2023/08/21 00:06:25;;;;;;;12.60;4.95;;;;;;;20.74;79.27;99626.75;4888561;29;20166;-84
2023/08/21 00:09:09;;;;;;;13.93;4.50;;;;;;;20.91;79.03;99632.03;4892995;29;20048;-84
2023/08/21 00:11:53;;;;;;;8.45;3.90;;;;;;;20.92;78.60;99628.31;4891252;29;20132;-84
2023/08/21 00:14:37;;;;;;;12.90;3.92;;;;;;;20.93;78.59;99629.94;4889543;29;20104;-84
2023/08/21 00:17:21;;;;;;;9.20;4.30;;;;;;;20.91;78.69;99620.56;4890903;29;20048;-84
2023/08/21 00:20:09;;;;;;;16.75;4.60;;;;;;;20.90;79.07;99614.44;4888130;29;20056;-84
2023/08/21 00:22:52;;;;;;;12.93;4.20;;;;;;;20.73;79.42;99616.31;4885840;29;20055;-84
2023/08/21 00:25:37;;;;;;;11.88;4.00;;;;;;;20.80;79.26;99615.09;4888391;29;20059;-84
2023/08/21 00:28:21;;;;;;;11.43;4.22;;;;;;;20.71;79.23;99605.88;4890582;29;20059;-84
2023/08/21 00:31:06;;;;;;;5.75;3.30;;;;;;;20.77;79.50;99601.41;4884926;29;20103;-84
2023/08/21 00:33:50;;;;;;;10.90;3.78;;;;;;;20.67;79.99;99604.78;4885389;29;20093;-85
2023/08/21 00:36:34;;;;;;;11.35;3.85;;;;;;;20.68;79.81;99596.53;4892681;29;20047;-83
2023/08/21 00:39:18;;;;;;;18.52;4.95;;;;;;;20.53;80.50;99607.00;4887917;29;20047;-84
2023/08/21 00:42:02;;;;;;;15.27;4.82;;;;;;;20.54;81.01;99612.09;4891936;29;20073;-84
2023/08/21 00:44:46;;;;;;;11.50;4.28;;;;;;;20.56;81.26;99614.50;4887471;29;20419;-84
2023/08/21 00:47:30;;;;;;;9.98;4.53;;;;;;;20.54;81.10;99616.59;4888191;29;20420;-83
2023/08/21 00:50:15;;;;;;;11.75;4.15;;;;;;;20.38;82.57;99619.06;4889721;29;20052;-83
2023/08/21 00:52:59;;;;;;;12.30;4.43;;;;;;;20.52;82.30;99624.84;4890318;29;20108;-83
2023/08/21 00:55:43;;;;;;;11.23;4.30;;;;;;;20.50;82.48;99607.50;4888391;29;20083;-84
2023/08/21 00:58:28;;;;;;;16.17;5.68;;;;;;;20.68;82.88;99623.22;4884232;29;20108;-84
2023/08/21 01:01:15;;;;;;;18.95;5.47;;;;;;;20.74;83.09;99609.91;4888904;29;20043;-85
2023/08/21 01:03:59;;;;;;;13.02;5.07;;;;;;;20.86;83.56;99607.97;4892124;29;20048;-84
2023/08/21 01:06:43;;;;;;;12.77;5.30;;;;;;;20.92;83.45;99612.31;4887726;29;20498;-84
2023/08/21 01:09:39;;;;;;;14.68;4.68;;;;;;;20.77;84.65;99617.44;4891841;29;20100;-84
2023/08/21 01:12:36;;;;;;;9.40;4.60;;;;;;;20.94;84.24;99617.41;4890278;29;20562;-84
2023/08/21 01:15:20;;;;;;;16.92;5.13;;;;;;;21.14;83.87;99618.69;4886471;29;20047;-83
2023/08/21 01:18:07;;;;;;;9.65;4.43;;;;;;;21.16;83.69;99628.03;4887554;29;20056;-83
2023/08/21 01:20:51;;;;;;;12.93;4.53;;;;;;;21.14;83.59;99619.50;4887804;29;20128;-84
2023/08/21 01:23:37;;;;;;;17.73;5.03;;;;;;;21.15;84.05;99636.31;4883758;29;20043;-83
2023/08/21 01:26:21;;;;;;;7.80;4.60;;;;;;;21.04;84.72;99624.72;4887464;29;20042;-83
2023/08/21 01:29:05;;;;;;;16.38;4.78;;;;;;;21.22;84.08;99632.41;4893257;29;20399;-84
2023/08/21 01:31:57;;;;;;;13.80;4.70;;;;;;;21.45;82.97;99627.00;4891386;29;20047;-83
2023/08/21 01:34:42;;;;;;;17.02;6.05;;;;;;;21.24;82.93;99640.16;4887240;29;20055;-83
2023/08/21 01:37:28;;;;;;;13.65;5.35;;;;;;;21.14;84.10;99637.38;4884572;29;20059;-83
2023/08/21 01:40:20;;;;;;;12.68;5.80;;;;;;;21.34;83.12;99623.44;4890522;29;20104;-84
2023/08/21 01:43:04;;;;;;;17.55;7.00;;;;;;;21.43;82.63;99627.28;4881829;29;20065;-83
2023/08/21 01:45:48;;;;;;;18.20;5.88;;;;;;;21.17;83.36;99618.97;4885791;29;20048;-84
2023/08/21 01:48:33;;;;;;;19.63;5.88;;;;;;;21.51;82.08;99618.78;4881620;29;20403;-85
2023/08/21 01:51:17;;;;;;;14.93;5.85;;;;;;;21.36;82.22;99623.97;4885831;29;20100;-85
2023/08/21 01:54:01;;;;;;;13.88;5.28;;;;;;;21.48;81.99;99630.00;4889286;29;20479;-83
2023/08/21 01:56:44;;;;;;;15.73;5.95;;;;;;;21.24;82.65;99624.94;4891385;29;20128;-82
2023/08/21 01:59:28;;;;;;;15.70;5.78;;;;;;;21.49;82.07;99623.59;4888669;29;20043;-82
2023/08/21 02:02:12;;;;;;;12.32;5.60;;;;;;;21.51;81.94;99624.13;4883557;29;20051;-82
2023/08/21 02:04:56;;;;;;;15.82;6.18;;;;;;;21.46;81.61;99620.59;4889847;29;20056;-82
2023/08/21 02:07:40;;;;;;;15.75;6.00;;;;;;;21.20;82.39;99626.47;4888847;29;20107;-83
2023/08/21 02:10:24;;;;;;;15.90;7.82;;;;;;;21.09;82.78;99622.09;4888365;29;20048;-82
2023/08/21 02:13:11;;;;;;;16.27;6.45;;;;;;;21.05;82.21;99621.00;4886993;29;20415;-82
2023/08/21 02:15:55;;;;;;;18.73;5.75;;;;;;;20.91;83.30;99616.03;4885447;29;20087;-82
2023/08/21 02:18:39;;;;;;;11.88;5.07;;;;;;;21.15;82.07;99607.75;4885715;29;20411;-82
2023/08/21 02:21:23;;;;;;;16.52;5.43;;;;;;;21.02;82.33;99618.81;4885877;29;20096;-83
2023/08/21 02:24:07;;;;;;;10.68;5.15;;;;;;;21.05;82.11;99621.78;4886143;29;20072;-83
2023/08/21 02:26:51;;;;;;;16.35;4.90;;;;;;;20.95;81.86;99622.47;4885628;29;20040;-83
2023/08/21 02:29:35;;;;;;;18.77;5.15;;;;;;;20.64;83.23;99622.09;4890250;29;20407;-82
2023/08/21 02:32:19;;;;;;;12.10;5.13;;;;;;;20.60;83.36;99614.81;4883623;29;20099;-83
2023/08/21 02:35:04;;;;;;;12.32;4.22;;;;;;;20.60;82.90;99620.94;4887857;29;20104;-83
2023/08/21 02:37:48;;;;;;;14.68;5.30;;;;;;;20.52;82.73;99622.19;4885704;29;20100;-82
2023/08/21 02:40:32;;;;;;;13.85;5.00;;;;;;;20.31;82.87;99615.78;4887415;29;20052;-83
2023/08/21 02:43:16;;;;;;;11.27;3.60;;;;;;;20.11;84.01;99619.75;4884370;29;20120;-83
2023/08/21 02:46:00;;;;;;;15.77;5.20;;;;;;;20.06;84.29;99611.69;4887300;29;20039;-83
2023/08/21 02:48:44;;;;;;;16.40;4.82;;;;;;;19.85;84.40;99615.84;4889257;29;20035;-83
2023/08/21 02:51:28;;;;;;;15.27;5.15;;;;;;;19.92;84.46;99623.72;4885983;29;20039;-83
2023/08/21 02:54:12;;;;;;;13.50;4.45;;;;;;;19.92;84.50;99626.38;4887989;29;20095;-83
2023/08/21 02:56:56;;;;;;;11.88;4.10;;;;;;;20.25;83.46;99622.88;4882286;29;20051;-83
2023/08/21 02:59:40;;;;;;;14.23;4.18;;;;;;;20.17;83.40;99620.63;4885805;29;20140;-84
2023/08/21 03:02:24;;;;;;;12.48;4.15;;;;;;;20.23;83.11;99622.31;4888343;29;20048;-83
2023/08/21 03:05:08;;;;;;;17.20;4.43;;;;;;;19.61;84.79;99652.44;4884080;29;20164;-84
2023/08/21 03:07:52;;;;;;;15.48;4.13;;;;;;;19.82;84.67;99638.44;4888949;29;20510;-85
2023/08/21 03:10:40;;;;;;;10.90;4.13;;;;;;;19.49;85.66;99645.34;4889136;29;20093;-84
2023/08/21 03:13:24;;;;;;;12.63;4.25;;;;;;;19.57;85.82;99648.66;4887312;29;20093;-83
2023/08/21 03:16:07;;;;;;;12.98;4.50;;;;;;;19.41;85.84;99643.03;4886790;29;20056;-83
2023/08/21 03:18:59;;;;;;;12.00;3.92;;;;;;;19.83;84.86;99640.03;4885621;29;20051;-83
2023/08/21 03:21:43;;;;;;;10.23;3.63;;;;;;;19.80;84.51;99637.06;4884252;29;20117;-84
2023/08/21 03:24:27;;;;;;;9.52;4.30;;;;;;;19.54;85.27;99632.13;4885895;29;20060;-83
2023/08/21 03:27:10;;;;;;;10.32;4.50;;;;;;;20.10;84.28;99623.47;4887747;29;20059;-83
2023/08/21 03:29:54;;;;;;;17.55;5.47;;;;;;;19.97;84.46;99615.78;4883525;29;20052;-82
2023/08/21 03:32:38;;;;;;;14.93;4.88;;;;;;;20.18;83.42;99616.09;4886527;29;20040;-84
2023/08/21 03:35:22;;;;;;;14.98;4.43;;;;;;;19.87;84.18;99604.97;4888491;29;20044;-83
2023/08/21 03:38:06;;;;;;;;;;;;;;;19.95;83.59;99608.06;4886407;29;20116;-83
2023/08/21 03:40:50;;;;;;;13.30;4.75;;;;;;;19.80;84.07;99597.13;4886283;29;19971;-83
2023/08/21 03:43:34;;;;;;;11.60;4.10;;;;;;;19.79;84.33;99612.28;4886631;29;20087;-82
2023/08/21 03:46:18;;;;;;;13.77;4.57;;;;;;;19.61;85.16;99600.00;4886164;29;20095;-83
2023/08/21 03:49:02;;;;;;;12.05;4.57;;;;;;;19.77;84.40;99603.72;4881589;29;20083;-82
2023/08/21 03:51:46;;;;;;;13.75;4.88;;;;;;;19.49;85.52;99602.75;4882152;29;20079;-83
2023/08/21 03:54:30;;;;;;;14.55;4.65;;;;;;;19.62;85.16;99600.81;4887663;29;20073;-83
2023/08/21 03:57:14;;;;;;;12.75;4.63;;;;;;;19.70;85.19;99611.06;4886888;29;20093;-83
2023/08/21 03:59:58;;;;;;;12.23;4.43;;;;;;;19.25;85.69;99605.50;4882054;29;20052;-82
2023/08/21 04:02:42;;;;;;;14.73;4.55;;;;;;;19.12;87.24;99614.56;4887205;29;20099;-82
2023/08/21 04:05:26;;;;;;;13.55;4.78;;;;;;;18.96;87.43;99618.75;4883175;29;20051;-82
2023/08/21 04:08:10;;;;;;;17.38;4.80;;;;;;;18.82;88.55;99620.06;4887316;29;20411;-82
2023/08/21 04:10:59;;;;;;;10.35;4.43;;;;;;;18.72;89.43;99612.69;4888108;29;20093;-82
2023/08/21 04:13:43;;;;;;;11.93;4.65;;;;;;;18.76;89.61;99615.69;4883849;29;20047;-85
2023/08/21 04:16:27;;;;;;;11.02;4.90;;;;;;;18.72;89.73;99615.34;4884052;29;20043;-84
2023/08/21 04:19:11;;;;;;;9.93;4.38;;;;;;;18.66;90.09;99611.75;4890807;29;20056;-81
2023/08/21 04:21:55;;;;;;;9.63;4.70;;;;;;;18.61;89.87;99622.31;4888632;29;20099;-82
2023/08/21 04:24:40;;;;;;;12.55;4.75;;;;;;;18.52;90.23;99616.53;4886935;29;20064;-82
2023/08/21 04:27:26;;;;;;;14.82;4.78;;;;;;;18.47;90.15;99615.59;4889351;29;20053;-82
2023/08/21 04:30:11;;;;;;;12.90;4.05;;;;;;;18.45;90.45;99620.34;4889660;29;20039;-84
2023/08/21 04:32:54;;;;;;;11.35;4.28;;;;;;;18.34;91.49;99617.47;4890410;29;20143;-82
2023/08/21 04:35:38;;;;;;;13.32;4.90;;;;;;;18.46;91.49;99617.47;4886439;29;20191;-81
2023/08/21 04:38:23;;;;;;;13.38;4.78;;;;;;;18.38;91.77;99623.94;4889394;29;20044;-82
2023/08/21 04:41:08;;;;;;;9.05;4.38;;;;;;;18.37;91.67;99622.31;4891301;29;20047;-82
2023/08/21 04:43:51;;;;;;;13.20;4.57;;;;;;;18.34;92.43;99621.97;4886540;29;20132;-83
2023/08/21 04:46:36;;;;;;;15.80;5.10;;;;;;;18.39;92.52;99628.22;4888362;29;20056;-82
2023/08/21 04:49:20;;;;;;;11.38;4.68;;;;;;;18.34;93.26;99635.25;4887309;29;20052;-82
2023/08/21 04:52:04;;;;;;;13.02;5.05;;;;;;;18.46;93.30;99622.78;4889150;29;20101;-85
2023/08/21 04:54:50;;;;;;;14.90;5.22;;;;;;;18.48;93.21;99620.69;4889560;29;20048;-82
2023/08/21 04:57:33;;;;;;;7.55;4.85;;;;;;;18.47;93.35;99623.56;4887943;29;20122;-83
2023/08/21 05:00:18;;;;;;;13.40;5.20;;;;;;;18.37;93.78;99624.16;4886355;29;20054;-85
2023/08/21 05:03:02;;;;;;;13.32;5.22;;;;;;;18.52;93.85;99634.34;4886115;29;20048;-82
2023/08/21 05:05:54;;;;;;;12.95;5.13;;;;;;;18.79;93.00;99631.19;4889383;29;20056;-83
2023/08/21 05:08:38;;;;;;;11.65;5.13;;;;;;;18.81;92.42;99634.41;4887504;29;20132;-83
2023/08/21 05:11:22;;;;;;;14.18;4.97;;;;;;;18.87;92.53;99628.16;4887625;29;20463;-83
2023/08/21 05:14:06;;;;;;;17.80;5.00;;;;;;;18.74;92.77;99631.06;4891291;29;20054;-83
2023/08/21 05:16:50;;;;;;;11.48;4.75;;;;;;;18.60;93.52;99630.53;4883343;29;20058;-81
2023/08/21 05:19:34;;;;;;;9.02;4.85;;;;;;;18.69;93.66;99637.09;4886323;29;20048;-84
2023/08/21 05:22:18;;;;;;;10.43;4.60;;;;;;;18.79;93.46;99636.50;4883505;29;20048;-82
2023/08/21 05:25:03;;;;;;;13.18;5.13;;;;;;;18.77;93.79;99634.09;4883585;29;20123;-82
2023/08/21 05:27:47;;;;;;;16.25;5.40;;;;;;;18.90;93.84;99633.00;4888792;29;20482;-82
2023/08/21 05:30:31;;;;;;;15.38;5.30;;;;;;;19.00;93.78;99631.63;4882002;29;20093;-81
2023/08/21 05:33:15;;;;;;;11.23;4.70;;;;;;;18.65;94.98;99628.75;4892357;29;20547;-82
2023/08/21 05:35:59;;;;;;;12.90;4.70;;;;;;;18.78;95.34;99634.88;4888698;29;20514;-82
2023/08/21 05:38:43;;;;;;;12.90;4.70;;;;;;;18.76;95.85;99636.97;4884259;29;20095;-83
2023/08/21 05:41:27;;;;;;;18.25;5.32;;;;;;;18.85;95.80;99635.56;4885520;29;20089;-82
2023/08/21 05:44:10;;;;;;;20.90;5.10;;;;;;;18.84;95.49;99637.41;4886491;29;20105;-82
2023/08/21 05:46:54;;;;;;;12.25;4.70;;;;;;;18.95;95.42;99646.41;4891494;29;20079;-83
2023/08/21 05:49:38;;;;;;;11.80;4.82;;;;;;;19.04;95.81;99638.09;4883964;29;20146;-82
2023/08/21 05:52:22;;;;;;;14.00;4.85;;;;;;;19.21;95.75;99644.28;4887613;29;20091;-83
2023/08/21 05:55:07;;;;;;;12.55;4.68;;;;;;;19.06;96.60;99636.00;4887955;29;20050;-81
2023/08/21 05:57:51;;;;;;;10.43;4.10;;;;;;;19.29;96.22;99647.63;4883769;29;20166;-80
2023/08/21 06:00:35;;;;;;;9.02;4.53;;;;;;;19.35;96.23;99649.34;4885313;29;20091;-80
2023/08/21 06:03:20;;;;;;;18.38;5.30;;;;;;;19.57;95.61;99651.31;4886611;29;20112;-81
2023/08/21 06:06:04;;;;;;;12.88;4.78;;;;;;;19.60;95.34;99645.50;4884711;29;20040;-80
2023/08/21 06:08:49;;;;;;;11.45;4.57;;;;;;;19.80;94.84;99640.53;4889132;29;20044;-80
2023/08/21 06:11:33;;;;;;;14.50;4.75;;;;;;;19.95;94.68;99648.03;4882388;29;20063;-80
2023/08/21 06:14:17;;;;;;;10.98;4.63;;;;;;;20.03;94.69;99652.13;4887196;29;20055;-81
2023/08/21 06:17:03;;;;;;;11.55;4.55;;;;;;;20.02;94.19;99663.03;4888569;29;20539;-83
2023/08/21 06:19:47;;;;;;;14.90;4.22;;;;;;;19.93;95.44;99662.63;4888463;29;20084;-83
2023/08/21 06:22:32;;;;;;;13.93;4.28;;;;;;;20.02;94.87;99663.81;4885767;29;20379;-83
2023/08/21 06:25:16;;;;;;;9.60;3.97;;;;;;;20.09;94.88;99659.16;4885943;29;20125;-81
2023/08/21 06:28:00;;;;;;;10.15;4.47;;;;;;;20.06;94.83;99654.31;4887117;29;20055;-81
2023/08/21 06:30:44;;;;;;;9.13;3.88;;;;;;;20.29;94.32;99654.38;4889496;29;20047;-83
2023/08/21 06:33:28;;;;;;;10.07;3.83;;;;;;;20.29;94.02;99651.72;4890708;29;20462;-83
2023/08/21 06:36:12;;;;;;;8.68;3.72;;;;;;;20.38;94.18;99661.72;4882115;29;20104;-82
2023/08/21 06:38:56;;;;;;;9.38;3.90;;;;;;;20.56;93.09;99657.16;4885498;29;20052;-81
2023/08/21 06:41:40;;;;;;;9.55;3.70;;;;;;;20.46;93.17;99665.84;4885219;29;20403;-83
2023/08/21 06:44:24;;;;;;;8.65;3.95;;;;;;;20.58;93.80;99663.06;4886609;29;20052;-83
2023/08/21 06:47:08;;;;;;;12.80;4.32;;;;;;;20.63;93.08;99665.78;4888777;29;20052;-81
2023/08/21 06:49:52;;;;;;;12.88;4.00;;;;;;;20.52;92.86;99656.84;4883442;29;20043;-83
2023/08/21 06:52:36;;;;;;;10.80;3.42;;;;;;;20.79;92.38;99664.16;4882739;29;20464;-86
2023/08/21 06:55:26;;;;;;;15.65;4.07;;;;;;;20.92;91.97;99665.69;4885695;29;20096;-84
2023/08/21 06:58:10;;;;;;;8.55;3.80;;;;;;;20.96;92.08;99661.44;4881725;29;20048;-83
2023/08/21 07:00:55;;;;;;;19.38;4.78;;;;;;;21.02;91.92;99662.31;4888667;29;20051;-84
2023/08/21 07:03:39;;;;;;;8.68;3.20;;;;;;;21.20;91.10;99669.19;4887052;29;20408;-83
2023/08/21 07:06:23;;;;;;;11.38;3.78;;;;;;;21.13;90.88;99657.91;4892653;29;20399;-83
2023/08/21 07:09:07;;;;;;;10.15;3.70;;;;;;;21.28;90.09;99667.16;4899589;29;20466;-82
2023/08/21 07:11:51;;;;;;;14.23;3.88;;;;;;;21.28;89.99;99677.84;4892620;29;20098;-84
2023/08/21 07:14:35;;;;;;;14.40;4.07;;;;;;;21.44;90.60;99666.28;4891147;29;20047;-83
2023/08/21 07:17:19;;;;;;;14.77;4.00;;;;;;;21.58;89.50;99660.50;4884615;29;20073;-84
2023/08/21 07:20:03;;;;;;;14.80;4.03;;;;;;;;;;4886530;29;20132;-83
2023/08/21 07:22:48;;;;;;;12.50;4.13;;;;;;;21.33;89.95;99665.34;4893498;29;20041;-81
2023/08/21 07:25:32;;;;;;;8.10;3.60;;;;;;;21.27;89.81;99661.00;4888324;29;20099;-83
2023/08/21 07:28:16;;;;;;;12.07;3.75;;;;;;;21.55;89.05;99656.50;4887490;29;20550;-83
2023/08/21 07:31:01;;;;;;;7.40;3.60;;;;;;;21.68;88.69;99656.09;4891185;29;20044;-82
2023/08/21 07:33:45;;;;;;;12.25;4.25;;;;;;;22.13;87.80;99661.31;4887962;29;21039;-82
2023/08/21 07:36:31;;;;;;;10.15;3.38;;;;;;;22.15;87.46;99655.69;4882165;29;20064;-83
2023/08/21 07:39:16;;;;;;;12.48;3.38;;;;;;;22.11;86.86;99658.88;4884447;29;20415;-84
2023/08/21 07:42:00;;;;;;;10.15;3.78;;;;;;;22.23;86.20;99663.25;4884531;29;20048;-84
2023/08/21 07:44:45;;;;;;;8.82;3.55;;;;;;;22.33;86.12;99657.16;4881348;29;20423;-83
2023/08/21 07:47:29;;;;;;;15.20;3.92;;;;;;;22.31;85.84;99660.06;4887437;29;20044;-84
2023/08/21 07:50:14;;;;;;;13.73;3.65;;;;;;;22.52;86.01;99663.72;4886974;29;20052;-85
2023/08/21 07:52:58;;;;;;;12.98;3.92;;;;;;;22.26;86.21;99665.41;4891950;29;20079;-83
2023/08/21 07:55:42;;;;;;;11.10;3.95;;;;;;;22.16;86.45;99659.97;4892188;29;20092;-84
2023/08/21 07:58:26;;;;;;;13.68;3.83;;;;;;;22.32;86.21;99667.03;4885408;29;20514;-85
2023/08/21 08:01:10;;;;;;;10.77;3.45;;;;;;;22.27;86.08;99661.66;4887020;29;20068;-83
2023/08/21 08:03:55;;;;;;;7.95;2.97;;;;;;;22.69;85.53;99662.72;4890242;29;20067;-83
2023/08/21 08:06:39;;;;;;;12.93;3.80;;;;;;;22.38;86.33;99666.00;4889217;29;20108;-83
2023/08/21 08:09:23;;;;;;;12.73;3.95;;;;;;;22.19;86.38;99659.44;4887419;29;20517;-83
2023/08/21 08:12:08;;;;;;;12.15;3.35;;;;;;;22.70;85.73;99668.88;4885440;29;20060;-83
2023/08/21 08:14:52;;;;;;;12.52;3.60;;;;;;;22.52;85.59;99668.25;4885217;29;20047;-82
2023/08/21 08:17:35;;;;;;;8.82;3.35;;;;;;;22.46;86.21;99663.91;4886722;29;20047;-82
2023/08/21 08:20:19;;;;;;;;;;;;;;;22.31;86.56;99656.63;4888881;29;20048;-83
2023/08/21 08:23:03;;;;;;;11.30;3.47;;;;;;;22.77;86.21;99664.91;4887181;29;19966;-83
2023/08/21 08:25:47;;;;;;;11.25;3.88;;;;;;;22.77;85.96;99670.28;4885380;29;20064;-82
2023/08/21 08:28:31;;;;;;;7.50;3.03;;;;;;;22.93;84.76;99663.09;4885689;29;20104;-81
2023/08/21 08:31:17;;;;;;;8.85;3.50;;;;;;;22.88;84.33;99655.06;4888606;29;20070;-80
2023/08/21 08:34:01;;;;;;;10.43;3.80;;;;;;;23.27;83.82;99664.59;4884766;29;20176;-80
2023/08/21 08:36:45;;;;;;;4.43;2.95;;;;;;;23.42;83.37;99658.47;4886557;29;20048;-83
2023/08/21 08:39:29;;;;;;;9.93;3.08;;;;;;;23.71;82.75;99668.69;4882361;29;20039;-80
2023/08/21 08:42:14;;;;;;;10.68;3.15;;;;;;;23.70;82.28;99663.63;4885844;29;20115;-80
2023/08/21 08:45:03;;;;;;;7.28;2.90;;;;;;;23.58;81.68;99650.44;4886154;29;20418;-81
2023/08/21 08:47:47;;;;;;;9.52;3.22;;;;;;;24.00;81.85;99659.31;4888444;29;20060;-80
2023/08/21 08:50:33;;;;;;;7.95;3.00;;;;;;;24.21;80.35;99662.84;4888797;29;20514;-81
2023/08/21 08:53:18;;;;;;;6.78;2.92;;;;;;;24.28;80.22;99668.72;4885100;29;20559;-81
2023/08/21 08:56:03;;;;;;;6.68;3.25;;;;;;;24.30;78.72;99658.50;4890102;29;20182;-81
2023/08/21 08:58:47;;;;;;;7.22;2.72;;;;;;;24.38;78.88;99663.34;4887988;29;20390;-81
2023/08/21 09:01:31;;;;;;;8.43;3.05;;;;;;;24.39;78.49;99659.59;4881343;29;20048;-81
2023/08/21 09:04:16;;;;;;;7.70;2.72;;;;;;;24.45;78.57;99662.25;4882498;29;20060;-81
2023/08/21 09:07:10;;;;;;;4.68;2.97;;;;;;;24.78;79.35;99660.03;4889996;29;20047;-81
2023/08/21 09:09:55;;;;;;;8.98;3.35;;;;;;;24.92;78.25;99654.88;4886587;29;20044;-81
2023/08/21 09:12:39;;;;;;;7.35;2.85;;;;;;;25.10;78.05;99661.50;4885732;29;20039;-81
2023/08/21 09:15:28;;;;;;;8.50;3.25;;;;;;;25.39;76.74;99666.19;4884131;29;20185;-80
2023/08/21 09:18:12;;;;;;;9.95;2.95;;;;;;;25.39;76.53;99666.19;4887840;29;20048;-81
2023/08/21 09:20:56;;;;;;;10.63;3.67;;;;;;;25.80;76.08;99660.56;4880657;29;20096;-81
2023/08/21 09:23:39;;;;;;;7.60;2.75;;;;;;;26.35;75.67;99669.50;4890437;29;20123;-81
2023/08/21 09:26:25;;;;;;;5.93;2.90;;;;;;;26.63;73.21;99662.47;4888509;29;20075;-80
2023/08/21 09:29:09;;;;;;;7.35;2.80;;;;;;;26.40;72.98;99674.06;4888007;29;20047;-81
2023/08/21 09:31:56;;;;;;;7.97;3.40;;;;;;;26.79;73.16;99673.09;4889505;29;20177;-81
2023/08/21 09:34:40;;;;;;;4.82;2.90;;;;;;;27.20;71.77;99677.16;4884254;29;20136;-81
2023/08/21 09:37:31;;;;;;;7.00;3.30;;;;;;;27.31;71.58;99672.44;4880881;29;20071;-81
2023/08/21 09:40:16;;;;;;;10.48;3.38;;;;;;;27.04;70.12;99657.72;4883958;29;20113;-81
2023/08/21 09:43:03;;;;;;;10.15;3.40;;;;;;;27.18;69.15;99657.78;4892186;29;20512;-81
2023/08/21 09:45:50;;;;;;;5.40;3.22;;;;;;;26.97;69.51;99659.97;4885437;29;20403;-81
2023/08/21 09:48:35;;;;;;;10.02;3.65;;;;;;;26.72;69.22;99648.38;4885363;29;20052;-81
2023/08/21 09:51:19;;;;;;;6.13;3.15;;;;;;;26.74;69.55;99657.00;4883069;29;20128;-81
2023/08/21 09:54:03;;;;;;;7.78;3.20;;;;;;;27.28;68.62;99654.97;4885155;29;20048;-81
2023/08/21 09:56:50;;;;;;;10.95;3.70;;;;;;;27.38;68.44;99652.13;4884445;29;20074;-81
2023/08/21 09:59:35;;;;;;;5.53;2.97;;;;;;;26.98;67.72;99643.50;4881775;29;20064;-81
2023/08/21 10:02:24;;;;;;;8.10;2.90;;;;;;;27.42;67.60;99638.84;4882313;29;20047;-81
2023/08/21 10:05:10;;;;;;;7.82;3.50;;;;;;;26.98;66.77;99631.94;4887030;29;20063;-81
2023/08/21 10:07:55;;;;;;;5.97;3.05;;;;;;;26.94;67.62;99632.53;4887713;29;20039;-81
2023/08/21 10:10:39;;;;;;;4.68;2.90;;;;;;;27.07;67.64;99624.81;4883389;29;20056;-81
2023/08/21 10:13:24;;;;;;;11.40;3.45;;;;;;;26.77;67.84;99632.19;4888362;29;20103;-81
2023/08/21 10:16:08;;;;;;;9.82;3.35;;;;;;;26.75;69.23;99626.28;4883541;29;20124;-81
2023/08/21 10:18:53;;;;;;;8.38;3.00;;;;;;;26.41;67.88;99621.81;4881493;29;20056;-81
2023/08/21 10:21:37;;;;;;;6.38;3.03;;;;;;;26.92;68.75;99621.25;4888851;29;20040;-81
2023/08/21 10:24:33;;;;;;;6.65;2.80;;;;;;;26.33;67.78;99624.03;4884443;29;20076;-81
2023/08/21 10:27:29;;;;;;;8.27;2.95;;;;;;;26.69;67.85;99627.41;4889291;29;20083;-81
2023/08/21 10:30:15;;;;;;;5.05;2.78;;;;;;;26.61;67.73;99620.78;4890606;29;20052;-82
2023/08/21 10:33:00;;;;;;;6.50;3.00;;;;;;;26.35;67.87;99605.75;4886566;29;20100;-81
2023/08/21 10:35:44;;;;;;;5.82;2.83;;;;;;;26.68;68.14;99615.84;4885871;29;20419;-81
2023/08/21 10:38:28;;;;;;;4.22;3.20;;;;;;;26.41;68.46;99611.84;4884585;29;20407;-81
2023/08/21 10:41:12;;;;;;;8.40;2.90;;;;;;;26.73;68.65;99604.22;4880286;29;20448;-81
2023/08/21 10:43:56;;;;;;;4.93;2.65;;;;;;;27.00;68.92;99600.91;4885811;29;20092;-81
2023/08/21 10:46:53;;;;;;;5.22;2.75;;;;;;;26.42;69.16;99612.66;4886265;29;20042;-81
2023/08/21 10:49:40;;;;;;;5.10;2.95;;;;;;;26.49;68.81;99613.94;4882413;29;20052;-81
2023/08/21 10:52:30;;;;;;;6.65;2.97;;;;;;;26.54;68.21;99609.56;4889805;29;20092;-81
2023/08/21 10:55:16;;;;;;;8.40;2.65;;;;;;;26.58;67.54;99606.00;4890145;29;20104;-81
2023/08/21 10:58:00;;;;;;;3.78;2.40;;;;;;;27.13;67.75;99610.19;4885530;29;20051;-81
2023/08/21 11:00:44;;;;;;;4.20;2.60;;;;;;;27.13;66.74;99618.28;4880831;29;21661;-81
2023/08/21 11:03:28;;;;;;;5.78;2.88;;;;;;;27.78;66.08;99624.84;4888111;29;20423;-81
2023/08/21 11:06:12;;;;;;;6.97;2.83;;;;;;;27.37;65.55;99623.56;4879891;29;20151;-81
2023/08/21 11:08:56;;;;;;;8.43;3.10;;;;;;;27.42;65.57;99601.13;4887522;29;20060;-81
2023/08/21 11:11:40;;;;;;;5.63;2.50;;;;;;;28.15;64.58;99610.72;4879360;29;20506;-81
2023/08/21 11:14:27;;;;;;;3.78;2.80;;;;;;;28.00;64.93;99609.09;4882383;29;20064;-81
2023/08/21 11:17:12;;;;;;;6.28;2.92;;;;;;;28.02;65.96;99610.41;4884474;29;20048;-81
2023/08/21 11:19:56;;;;;;;6.50;2.80;;;;;;;27.65;64.93;99604.03;4880428;29;20174;-81
2023/08/21 11:22:40;;;;;;;6.68;2.90;;;;;;;27.60;66.82;99617.59;4889442;29;20515;-81
2023/08/21 11:25:25;;;;;;;4.15;2.42;;;;;;;27.93;66.05;99614.91;4881462;29;20064;-81
2023/08/21 11:28:09;;;;;;;3.92;2.05;;;;;;;28.03;64.63;99603.91;4881834;29;20476;-81
2023/08/21 11:30:55;;;;;;;3.58;2.13;;;;;;;28.03;63.49;99595.03;4887812;29;20046;-81
2023/08/21 11:33:40;;;;;;;5.05;2.30;;;;;;;28.53;62.71;99588.97;4888837;29;20043;-81
2023/08/21 11:36:24;;;;;;;3.83;2.40;;;;;;;27.97;64.56;99597.00;4881873;29;20583;-81
2023/08/21 11:39:08;;;;;;;5.60;2.30;;;;;;;28.25;62.65;99596.25;4888488;29;20067;-81
2023/08/21 11:41:54;;;;;;;7.20;3.00;;;;;;;28.72;64.30;99579.94;4885605;29;20077;-81
2023/08/21 11:44:50;;;;;;;3.75;2.28;;;;;;;29.39;63.20;99591.16;4889283;29;20055;-81
2023/08/21 11:47:35;;;;;;;5.10;2.38;;;;;;;29.98;60.80;99599.16;4888953;29;20052;-81
2023/08/21 11:50:19;;;;;;;3.28;2.40;;;;;;;30.03;59.75;99592.84;4889293;29;20084;-81
2023/08/21 11:53:04;;;;;;;8.05;2.70;;;;;;;30.11;59.92;99589.38;4890457;29;20406;-80
2023/08/21 11:55:48;;;;;;;5.72;2.38;;;;;;;30.03;61.17;99590.91;4887499;29;20075;-81
2023/08/21 11:58:32;;;;;;;5.68;2.95;;;;;;;30.01;61.51;99585.00;4890140;29;22863;-81
2023/08/21 12:01:17;;;;;;;6.32;3.05;;;;;;;29.45;60.86;99581.84;4887482;29;20510;-81
2023/08/21 12:04:13;;;;;;;5.28;2.90;;;;;;;29.34;61.05;99584.75;4889837;29;20063;-81
2023/08/21 12:06:58;;;;;;;3.50;2.63;;;;;;;29.63;61.54;99575.44;4882462;29;20047;-81
2023/08/21 12:09:51;;;;;;;4.65;2.92;;;;;;;29.80;61.33;99579.34;4885327;29;20035;-81
2023/08/21 12:12:35;;;;;;;2.90;2.35;;;;;;;30.10;60.90;99593.19;4890087;29;20411;-80
2023/08/21 12:15:20;;;;;;;3.42;2.50;;;;;;;29.94;60.98;99587.38;4892871;29;20044;-81
2023/08/21 12:18:04;;;;;;;5.40;2.90;;;;;;;30.01;60.10;99573.38;4887101;29;20047;-81
2023/08/21 12:20:48;;;;;;;6.93;3.20;;;;;;;30.18;60.06;99591.63;4885622;29;20099;-80
2023/08/21 12:23:32;;;;;;;5.65;3.00;;;;;;;30.50;59.48;99592.38;4892575;29;20096;-80
2023/08/21 12:26:22;;;;;;;4.47;2.80;;;;;;;29.93;59.39;99591.97;4882389;29;20088;-81
2023/08/21 12:29:06;;;;;;;4.10;2.60;;;;;;;29.83;59.67;99588.72;4890723;29;20056;-80
2023/08/21 12:31:50;;;;;;;5.38;3.03;;;;;;;29.46;60.14;99580.72;4887046;29;20040;-81
2023/08/21 12:34:34;;;;;;;4.95;2.78;;;;;;;29.78;61.38;99581.56;4884628;29;20055;-81
2023/08/21 12:37:18;;;;;;;4.57;2.95;;;;;;;29.72;61.12;99580.09;4887517;29;20108;-81
2023/08/21 12:40:02;;;;;;;5.43;3.03;;;;;;;29.68;60.36;99581.81;4892026;29;20132;-81
2023/08/21 12:42:46;;;;;;;5.15;3.08;;;;;;;29.59;61.34;99568.25;4890921;29;20506;-81
2023/08/21 12:45:30;;;;;;;6.28;3.03;;;;;;;29.34;60.54;99562.34;4885881;29;20052;-81
2023/08/21 12:48:14;;;;;;;6.57;3.28;;;;;;;29.06;60.72;99563.25;4888611;29;20044;-81
2023/08/21 12:50:58;;;;;;;5.13;3.42;;;;;;;29.52;60.57;99559.78;4885316;29;20100;-81